Time;durP1;ratioP1;P1;durP2;ratioP2;P2;SDS_P1;SDS_P2;PMS_P1;PMS_P2;Temp;Humidity;BMP_temperature;BMP_pressure;BME280_temperature;BME280_humidity;BME280_pressure;Samples;Min_cycle;Max_cycle;Signal;HPM_P1;HPM_P2
2022/04/25 00:01:32;;;;;;;2.65;1.60;;;10.50;99.90;;;;;;5053563;28;20010;-81
2022/04/25 00:03:57;;;;;;;4.78;1.83;;;10.50;99.90;;;;;;5047410;28;20085;-84
2022/04/25 00:06:23;;;;;;;2.55;1.80;;;10.50;99.90;;;;;;5028350;28;20088;-83
2022/04/25 00:08:49;;;;;;;4.00;1.70;;;10.50;99.90;;;;;;5045867;28;20037;-82
2022/04/25 00:11:15;;;;;;;2.83;1.50;;;10.40;99.90;;;;;;5047239;28;20036;-84
2022/04/25 00:13:41;;;;;;;3.47;1.73;;;10.40;99.90;;;;;;5045622;28;20033;-83
2022/04/25 00:16:06;;;;;;;2.97;1.60;;;10.30;99.90;;;;;;5027666;28;20099;-83
2022/04/25 00:18:33;;;;;;;2.90;1.27;;;10.30;99.90;;;;;;5046336;28;20052;-83
2022/04/25 00:21:00;;;;;;;2.22;1.20;;;10.30;99.90;;;;;;5046468;28;20067;-83
2022/04/25 00:23:26;;;;;;;1.63;1.13;;;10.20;99.90;;;;;;5028448;28;20045;-81
2022/04/25 00:25:52;;;;;;;1.08;0.90;;;10.20;99.90;;;;;;5106002;22;20057;-84
2022/04/25 00:28:19;;;;;;;1.75;1.08;;;10.20;99.90;;;;;;5095249;28;20012;-82
2022/04/25 00:30:47;;;;;;;1.92;0.80;;;10.20;99.90;;;;;;5080448;28;20032;-83
2022/04/25 00:33:13;;;;;;;0.60;0.60;;;10.20;99.90;;;;;;5097692;28;20043;-84
2022/04/25 00:35:38;;;;;;;0.40;0.40;;;10.20;99.90;;;;;;5078335;28;20037;-84
2022/04/25 00:38:04;;;;;;;0.50;0.50;;;10.20;99.90;;;;;;5078880;28;20032;-83
2022/04/25 00:40:30;;;;;;;0.63;0.40;;;10.20;99.90;;;;;;5096612;28;20020;-83
2022/04/25 00:42:56;;;;;;;0.90;0.38;;;10.20;99.90;;;;;;5078713;28;20028;-83
2022/04/25 00:45:22;;;;;;;0.63;0.63;;;10.20;99.90;;;;;;5077753;28;20048;-83
2022/04/25 00:47:48;;;;;;;0.40;0.40;;;10.20;99.90;;;;;;5093953;28;20040;-84
2022/04/25 00:50:15;;;;;;;1.95;0.40;;;10.10;99.90;;;;;;5090731;28;20499;-84
2022/04/25 00:52:42;;;;;;;0.40;0.40;;;10.10;99.90;;;;;;5069402;28;20048;-85
2022/04/25 00:55:10;;;;;;;1.40;0.63;;;10.10;99.90;;;;;;5085568;28;20125;-83
2022/04/25 00:57:37;;;;;;;0.50;0.50;;;10.20;99.90;;;;;;5088647;28;20017;-83
2022/04/25 01:00:06;;;;;;;2.63;0.30;;;10.20;99.90;;;;;;5072631;28;20028;-83
2022/04/25 01:02:32;;;;;;;0.38;0.30;;;10.30;99.90;;;;;;5072159;28;20051;-83
2022/04/25 01:04:58;;;;;;;0.30;0.30;;;10.30;99.90;;;;;;5077322;28;20088;-82
2022/04/25 01:07:24;;;;;;;0.30;0.30;;;10.40;99.90;;;;;;5061148;28;20207;-84
2022/04/25 01:09:50;;;;;;;0.20;0.20;;;10.50;99.90;;;;;;5077543;28;20029;-84
2022/04/25 01:12:16;;;;;;;0.25;0.25;;;10.50;99.90;;;;;;5092330;28;20092;-82
2022/04/25 01:14:42;;;;;;;0.30;0.30;;;10.50;99.90;;;;;;5073460;28;20085;-82
2022/04/25 01:17:08;;;;;;;0.50;0.25;;;10.60;99.90;;;;;;5089593;28;20031;-84
2022/04/25 01:19:35;;;;;;;0.20;0.20;;;10.60;99.90;;;;;;5089410;28;20052;-82
2022/04/25 01:22:10;;;;;;;0.52;0.30;;;10.60;99.90;;;;;;5086753;28;20067;-83
2022/04/25 01:27:21;;;;;;;0.20;0.20;;;10.70;99.90;;;;;;5085313;28;20020;-82
2022/04/25 01:29:49;;;;;;;0.60;0.30;;;10.80;99.90;;;;;;5075009;28;20488;-83
2022/04/25 01:32:16;;;;;;;0.15;0.10;;;10.80;99.90;;;;;;5083091;28;20029;-84
2022/04/25 01:34:42;;;;;;;0.10;0.10;;;10.80;99.90;;;;;;5083767;28;20046;-83
2022/04/25 01:37:13;;;;;;;0.20;0.20;;;10.90;99.90;;;;;;5085299;28;20052;-83
2022/04/25 01:39:51;;;;;;;0.20;0.20;;;10.90;99.90;;;;;;5084102;28;20441;-84
2022/04/25 01:42:18;;;;;;;0.10;0.10;;;11.00;99.90;;;;;;5083840;28;20039;-83
2022/04/25 01:44:44;;;;;;;0.10;0.10;;;11.10;99.90;;;;;;5081925;28;20043;-85
2022/04/25 01:47:11;;;;;;;0.30;0.20;;;11.10;99.90;;;;;;5082457;28;20052;-84
2022/04/25 01:49:37;;;;;;;0.17;0.17;;;11.20;99.90;;;;;;5082228;28;20437;-84
2022/04/25 01:52:13;;;;;;;0.20;0.20;;;11.20;99.90;;;;;;5065298;28;20036;-84
2022/04/25 01:54:39;;;;;;;0.10;0.10;;;11.20;99.90;;;;;;5068516;28;20028;-83
2022/04/25 01:57:04;;;;;;;0.10;0.10;;;11.10;99.90;;;;;;5089894;28;20612;-83
2022/04/25 01:59:30;;;;;;;1.85;0.20;;;11.20;99.90;;;;;;5078176;28;20071;-85
2022/04/25 02:01:56;;;;;;;0.47;0.38;;;11.20;99.90;;;;;;5064663;28;20458;-84
2022/04/25 02:04:22;;;;;;;0.15;0.15;;;11.20;99.90;;;;;;5065462;28;20436;-84
2022/04/25 02:06:49;;;;;;;0.20;0.20;;;11.20;99.90;;;;;;5082493;28;20028;-84
2022/04/25 02:09:15;;;;;;;1.00;0.20;;;11.10;99.90;;;;;;5063265;28;20059;-84
2022/04/25 02:11:41;;;;;;;2.40;0.38;;;11.00;99.90;;;;;;5064076;28;20029;-84
2022/04/25 02:14:07;;;;;;;0.30;0.30;;;11.10;99.90;;;;;;5093581;28;20102;-84
2022/04/25 02:16:32;;;;;;;0.90;0.30;;;11.10;99.90;;;;;;5052329;28;20017;-83
2022/04/25 02:18:58;;;;;;;1.75;0.20;;;11.10;99.90;;;;;;5064046;28;20059;-85
2022/04/25 02:21:24;;;;;;;0.57;0.20;;;11.10;99.90;;;;;;5080325;28;20024;-84
2022/04/25 02:23:50;;;;;;;0.63;0.63;;;11.10;99.90;;;;;;5067322;28;20032;-85
2022/04/25 02:26:16;;;;;;;2.28;0.30;;;11.10;99.90;;;;;;5085297;28;20055;-84
2022/04/25 02:28:42;;;;;;;0.20;0.20;;;11.10;99.90;;;;;;5080777;28;20515;-84
2022/04/25 02:31:08;;;;;;;0.60;0.38;;;11.20;99.90;;;;;;5061165;28;20066;-83
2022/04/25 02:33:35;;;;;;;0.10;0.10;;;11.20;99.90;;;;;;5078526;28;20032;-83
2022/04/25 02:36:04;;;;;;;1.00;0.20;;;11.20;99.90;;;;;;5060071;28;20017;-83
2022/04/25 02:38:32;;;;;;;0.68;0.13;;;11.20;99.90;;;;;;5078021;28;20557;-84
2022/04/25 02:41:08;;;;;;;0.30;0.10;;;11.20;99.90;;;;;;5044511;28;20448;-84
2022/04/25 02:43:37;;;;;;;0.10;0.10;;;11.20;99.90;;;;;;5062113;28;20032;-85
2022/04/25 02:46:05;;;;;;;0.20;0.20;;;11.20;99.90;;;;;;5085026;28;20024;-82
2022/04/25 02:48:32;;;;;;;0.20;0.20;;;11.30;99.90;;;;;;5068285;28;20107;-84
2022/04/25 02:50:58;;;;;;;0.20;0.20;;;11.30;99.90;;;;;;5091009;28;20032;-84
2022/04/25 02:53:25;;;;;;;0.20;0.10;;;11.30;99.90;;;;;;5099935;28;20062;-83
2022/04/25 02:55:53;;;;;;;1.98;0.22;;;11.30;99.90;;;;;;5100259;28;20063;-81
2022/04/25 02:58:20;;;;;;;0.77;0.22;;;11.30;99.90;;;;;;5083174;28;20013;-82
2022/04/25 03:00:47;;;;;;;1.15;0.30;;;11.30;99.90;;;;;;5100000;28;20330;-82
2022/04/25 03:03:14;;;;;;;0.43;0.30;;;11.30;99.90;;;;;;5065912;28;20112;-82
2022/04/25 03:05:45;;;;;;;0.35;0.20;;;11.20;99.90;;;;;;5099734;28;20058;-81
2022/04/25 03:08:12;;;;;;;0.20;0.20;;;11.20;99.90;;;;;;5065842;28;20027;-82
2022/04/25 03:10:38;;;;;;;1.17;0.47;;;11.20;99.90;;;;;;5081929;28;20031;-81
2022/04/25 03:13:06;;;;;;;0.52;0.30;;;11.20;99.90;;;;;;5089277;28;20032;-85
2022/04/25 03:15:38;;;;;;;0.47;0.30;;;11.20;99.90;;;;;;5063946;28;20016;-84
2022/04/25 03:18:09;;;;;;;1.48;0.40;;;11.10;99.90;;;;;;5064357;28;20024;-84
2022/04/25 03:20:35;;;;;;;0.70;0.20;;;11.20;99.90;;;;;;5064356;28;20039;-84
2022/04/25 03:23:01;;;;;;;1.15;0.30;;;11.20;99.90;;;;;;5085821;28;20025;-83
2022/04/25 03:25:26;;;;;;;0.20;0.20;;;11.20;99.90;;;;;;5081954;28;20039;-86
2022/04/25 03:27:52;;;;;;;0.22;0.20;;;11.10;99.90;;;;;;5061924;28;20029;-85
2022/04/25 03:30:18;;;;;;;1.75;0.30;;;11.10;99.90;;;;;;5090177;28;20033;-82
2022/04/25 03:32:48;;;;;;;0.13;0.13;;;11.10;99.90;;;;;;5092421;28;20043;-84
2022/04/25 03:35:14;;;;;;;0.60;0.30;;;11.10;99.90;;;;;;5081582;28;20031;-83
2022/04/25 03:37:41;;;;;;;0.25;0.25;;;11.20;99.90;;;;;;5082567;28;20080;-83
2022/04/25 03:40:09;;;;;;;0.80;0.30;;;11.20;99.90;;;;;;5068192;28;20052;-83
2022/04/25 03:42:37;;;;;;;2.08;0.30;;;11.20;99.90;;;;;;5087074;28;20085;-83
2022/04/25 03:45:09;;;;;;;1.02;0.40;;;11.20;99.90;;;;;;5085117;28;20480;-83
2022/04/25 03:47:39;;;;;;;0.20;0.20;;;11.20;99.90;;;;;;5083492;28;20025;-85
2022/04/25 03:50:07;;;;;;;0.45;0.40;;;11.10;99.90;;;;;;5086594;28;20032;-83
2022/04/25 03:52:37;;;;;;;0.82;0.30;;;11.20;99.90;;;;;;5091308;28;20032;-82
2022/04/25 03:57:56;;;;;;;0.43;0.40;;;11.10;99.90;;;;;;5093723;28;20039;-82
2022/04/25 04:00:22;;;;;;;0.57;0.30;;;11.10;99.90;;;;;;5094886;28;20025;-83
2022/04/25 04:02:48;;;;;;;0.10;0.10;;;11.10;99.90;;;;;;5096059;28;20080;-83
2022/04/25 04:05:14;;;;;;;0.20;0.20;;;11.20;99.90;;;;;;5077936;28;20035;-82
2022/04/25 04:07:41;;;;;;;0.20;0.20;;;11.10;99.90;;;;;;5094627;28;20036;-83
2022/04/25 04:10:08;;;;;;;0.57;0.43;;;11.10;99.90;;;;;;5096370;28;20024;-82
2022/04/25 04:12:34;;;;;;;1.85;0.30;;;11.00;99.90;;;;;;5091559;28;20044;-84
2022/04/25 04:15:07;;;;;;;0.40;0.40;;;11.10;99.90;;;;;;5083705;28;20052;-85
2022/04/25 04:17:33;;;;;;;7.93;0.50;;;11.10;99.90;;;;;;5085193;28;20073;-83
2022/04/25 04:20:00;;;;;;;0.38;0.38;;;11.10;99.90;;;;;;5050801;28;20084;-82
2022/04/25 04:22:29;;;;;;;0.55;0.20;;;11.10;99.90;;;;;;5095149;28;20017;-82
2022/04/25 04:25:06;;;;;;;0.20;0.20;;;11.20;99.90;;;;;;5077770;28;20036;-85
2022/04/25 04:27:32;;;;;;;0.32;0.30;;;11.20;99.90;;;;;;5055014;28;20032;-83
2022/04/25 04:30:03;;;;;;;0.73;0.30;;;11.20;99.90;;;;;;5060914;28;20071;-85
2022/04/25 04:32:30;;;;;;;1.88;0.93;;;11.20;99.90;;;;;;5094598;28;20040;-86
2022/04/25 04:34:57;;;;;;;0.30;0.20;;;11.20;99.90;;;;;;5078365;28;20107;-86
2022/04/25 04:37:25;;;;;;;0.45;0.43;;;11.30;99.90;;;;;;5091209;28;20013;-83
2022/04/25 04:40:27;;;;;;;1.92;0.38;;;11.30;99.90;;;;;;5077325;28;20025;-85
2022/04/25 04:42:37;;;;;;;1.23;0.20;;;11.40;99.90;;;;;;5078411;28;20021;-84
2022/04/25 04:45:04;;;;;;;0.22;0.20;;;11.40;99.90;;;;;;5051565;28;20029;-85
2022/04/25 04:47:34;;;;;;;0.52;0.30;;;11.40;99.90;;;;;;5064146;28;20036;-85
2022/04/25 04:50:00;;;;;;;0.65;0.20;;;11.50;99.90;;;;;;5064840;28;20054;-85
2022/04/25 04:52:26;;;;;;;0.98;0.43;;;11.50;99.90;;;;;;5062047;28;20117;-87
2022/04/25 04:54:51;;;;;;;0.52;0.50;;;11.60;99.90;;;;;;5061225;28;20030;-86
2022/04/25 04:57:17;;;;;;;2.28;0.40;;;11.60;99.90;;;;;;5081703;28;20025;-86
2022/04/25 04:59:43;;;;;;;0.52;0.30;;;11.70;99.90;;;;;;5065717;28;20024;-85
2022/04/25 05:02:09;;;;;;;0.60;0.40;;;11.60;99.90;;;;;;5065241;28;20024;-86
2022/04/25 05:04:34;;;;;;;0.60;0.30;;;11.60;99.90;;;;;;5080165;28;20033;-86
2022/04/25 05:07:00;;;;;;;0.40;0.40;;;11.70;99.90;;;;;;5063626;28;20110;-86
2022/04/25 05:09:26;;;;;;;2.15;0.43;;;11.80;99.90;;;;;;5086767;28;20020;-82
2022/04/25 05:11:52;;;;;;;0.40;0.30;;;11.80;99.90;;;;;;5079534;28;20021;-84
2022/04/25 05:14:17;;;;;;;7.00;3.08;;;11.80;99.90;;;;;;5063218;28;20032;-86
2022/04/25 05:16:43;;;;;;;0.47;0.40;;;11.70;99.90;;;;;;5062336;28;20025;-87
2022/04/25 05:19:09;;;;;;;2.80;0.85;;;11.70;99.90;;;;;;5061283;28;20029;-87
2022/04/25 05:21:35;;;;;;;1.00;0.40;;;11.80;99.90;;;;;;5052611;28;20024;-86
2022/04/25 05:24:00;;;;;;;0.65;0.50;;;11.70;99.90;;;;;;5099920;28;20031;-86
2022/04/25 05:26:26;;;;;;;2.35;0.40;;;11.80;99.90;;;;;;5081157;28;20036;-85
2022/04/25 05:28:52;;;;;;;2.85;0.80;;;11.80;99.90;;;;;;5086226;28;20048;-86
2022/04/25 05:31:18;;;;;;;0.38;0.38;;;11.70;99.90;;;;;;5087700;28;20004;-82
2022/04/25 05:33:44;;;;;;;1.13;0.63;;;11.70;99.90;;;;;;5084393;28;20124;-83
2022/04/25 05:36:10;;;;;;;2.67;0.70;;;11.60;99.90;;;;;;5046940;28;20035;-87
2022/04/25 05:38:37;;;;;;;3.00;0.65;;;11.70;99.90;;;;;;5078360;28;20033;-86
2022/04/25 05:41:03;;;;;;;2.03;0.60;;;11.80;99.90;;;;;;5071118;28;20054;-83
2022/04/25 05:43:29;;;;;;;1.95;0.88;;;11.90;99.90;;;;;;5072279;28;20025;-85
2022/04/25 05:45:55;;;;;;;1.15;0.60;;;11.90;99.90;;;;;;5083442;28;20067;-85
2022/04/25 05:53:49;;;;;;;5.13;0.70;;;12.20;99.90;;;;;;5089776;28;20036;-88
2022/04/25 05:56:15;;;;;;;0.95;0.55;;;12.30;99.90;;;;;;5106476;28;20080;-86
2022/04/25 05:58:41;;;;;;;3.83;0.63;;;12.40;99.90;;;;;;5098872;28;20020;-89
2022/04/25 06:01:07;;;;;;;0.50;0.50;;;12.40;99.90;;;;;;5071859;28;20044;-85
2022/04/25 06:03:32;;;;;;;3.47;1.05;;;12.40;99.90;;;;;;5081999;28;20030;-87
2022/04/25 06:05:58;;;;;;;3.47;0.60;;;12.50;99.90;;;;;;5085686;28;20036;-86
2022/04/25 06:08:25;;;;;;;2.28;0.95;;;12.60;99.90;;;;;;5084506;28;20036;-84
2022/04/25 06:10:51;;;;;;;4.75;0.68;;;12.60;99.90;;;;;;5098856;28;20044;-85
2022/04/25 06:13:16;;;;;;;2.42;0.90;;;12.40;99.90;;;;;;5059577;28;20035;-87
2022/04/25 06:15:42;;;;;;;2.28;1.20;;;12.40;99.90;;;;;;5101622;28;20024;-85
2022/04/25 06:18:08;;;;;;;2.03;1.05;;;12.50;99.90;;;;;;5094827;28;20020;-86
2022/04/25 06:20:35;;;;;;;3.10;0.77;;;12.50;99.90;;;;;;5083389;28;20045;-88
2022/04/25 06:23:02;;;;;;;1.50;0.80;;;12.50;99.90;;;;;;5062974;28;20043;-85
2022/04/25 06:25:31;;;;;;;9.02;0.98;;;12.60;99.90;;;;;;5129176;22;20049;-86
2022/04/25 06:27:58;;;;;;;4.07;0.85;;;12.60;99.90;;;;;;5057404;28;20151;-86
2022/04/25 06:30:28;;;;;;;5.95;1.13;;;12.50;99.90;;;;;;5058001;28;20021;-87
2022/04/25 06:32:54;;;;;;;3.85;0.82;;;12.60;99.90;;;;;;5071859;28;20036;-86
2022/04/25 06:35:21;;;;;;;3.58;1.80;;;12.70;99.90;;;;;;5093795;28;20046;-86
2022/04/25 06:37:47;;;;;;;6.53;1.13;;;12.60;99.90;;;;;;5080738;28;20028;-86
2022/04/25 06:40:13;;;;;;;2.55;0.93;;;12.60;99.90;;;;;;5084019;28;20028;-87
2022/04/25 06:42:39;;;;;;;3.72;1.00;;;12.60;99.90;;;;;;5089864;28;20181;-87
2022/04/25 06:45:05;;;;;;;1.85;1.17;;;12.70;99.90;;;;;;5103304;28;20032;-87
2022/04/25 06:47:31;;;;;;;3.92;0.95;;;12.60;99.90;;;;;;5076234;28;20126;-86
2022/04/25 06:49:57;;;;;;;0.90;0.70;;;12.60;99.90;;;;;;5065194;28;20029;-86
2022/04/25 06:52:23;;;;;;;4.95;1.17;;;12.60;99.90;;;;;;5080968;28;20100;-85
2022/04/25 06:54:50;;;;;;;1.85;1.10;;;12.60;99.90;;;;;;5087951;28;20020;-86
2022/04/25 06:57:16;;;;;;;2.42;1.10;;;12.60;99.90;;;;;;5094809;28;20040;-86
2022/04/25 06:59:43;;;;;;;3.03;1.30;;;12.70;99.90;;;;;;5069026;28;20035;-87
2022/04/25 07:02:10;;;;;;;3.10;1.15;;;13.00;99.90;;;;;;5080555;28;20029;-86
2022/04/25 07:04:37;;;;;;;1.67;1.48;;;13.10;99.90;;;;;;5087745;28;20025;-86
2022/04/25 07:07:03;;;;;;;1.83;1.17;;;13.20;99.90;;;;;;5079504;28;20052;-87
2022/04/25 07:09:29;;;;;;;3.22;1.52;;;13.20;99.90;;;;;;5087033;28;20032;-85
2022/04/25 07:11:55;;;;;;;2.03;1.13;;;13.30;99.90;;;;;;5085822;28;20035;-86
2022/04/25 07:14:23;;;;;;;2.70;1.00;;;13.40;99.90;;;;;;5069065;28;20055;-86
2022/04/25 07:16:52;;;;;;;3.67;1.35;;;13.60;99.90;;;;;;5091299;28;20028;-87
2022/04/25 07:19:19;;;;;;;2.50;1.42;;;13.50;99.90;;;;;;5063242;28;20069;-89
2022/04/25 07:30:01;;;;;;;1.67;1.00;;;13.70;99.90;;;;;;5078191;28;20032;-88
2022/04/25 07:32:27;;;;;;;1.27;1.05;;;14.40;99.90;;;;;;5069186;28;20029;-86
2022/04/25 07:34:53;;;;;;;2.50;1.30;;;14.60;99.90;;;;;;5077250;28;20070;-88
2022/04/25 07:37:22;;;;;;;4.05;1.40;;;14.70;99.90;;;;;;5087283;28;20029;-86
2022/04/25 07:39:48;;;;;;;2.80;1.20;;;14.50;99.90;;;;;;5070323;28;20039;-88
2022/04/25 07:42:18;;;;;;;2.05;1.50;;;14.50;99.90;;;;;;5098074;28;20032;-87
2022/04/25 07:44:47;;;;;;;1.75;1.17;;;14.60;99.90;;;;;;5108770;28;20059;-85
2022/04/25 07:47:13;;;;;;;2.55;1.25;;;14.70;99.90;;;;;;5092178;28;20059;-86
2022/04/25 07:49:40;;;;;;;4.35;1.42;;;14.90;99.90;;;;;;5072918;28;20036;-84
2022/04/25 07:52:07;;;;;;;2.55;1.55;;;15.10;99.90;;;;;;5085107;28;20039;-86
2022/04/25 07:54:33;;;;;;;3.10;1.80;;;15.10;99.90;;;;;;5080261;28;20039;-86
2022/04/25 07:56:59;;;;;;;3.35;1.58;;;15.20;99.90;;;;;;5085705;28;20040;-86
2022/04/25 07:59:26;;;;;;;2.40;1.58;;;15.30;99.90;;;;;;5084010;28;20032;-87
2022/04/25 08:01:52;;;;;;;4.70;2.05;;;15.30;99.90;;;;;;5074403;28;20024;-86
2022/04/25 08:04:18;;;;;;;13.43;2.00;;;15.30;99.90;;;;;;5089374;28;20407;-87
2022/04/25 08:06:44;;;;;;;2.63;1.58;;;15.60;99.90;;;;;;5087466;28;20039;-85
2022/04/25 08:09:10;;;;;;;8.20;1.92;;;15.90;99.90;;;;;;5052668;28;20044;-87
2022/04/25 08:11:36;;;;;;;5.80;1.60;;;16.00;99.90;;;;;;5096398;28;20016;-86
2022/04/25 08:19:36;;;;;;;7.82;1.60;;;15.90;99.90;;;;;;5044703;28;20040;-86
2022/04/25 08:22:04;;;;;;;3.53;1.70;;;15.20;99.90;;;;;;5089882;28;20070;-86
2022/04/25 08:24:30;;;;;;;2.58;1.58;;;15.20;99.90;;;;;;5090949;28;20035;-88
2022/04/25 08:26:58;;;;;;;2.03;1.30;;;15.30;99.90;;;;;;5081730;28;20105;-87
2022/04/25 08:29:25;;;;;;;2.95;1.70;;;15.40;99.90;;;;;;5077870;28;20044;-86
2022/04/25 08:31:51;;;;;;;2.95;1.65;;;15.80;99.90;;;;;;5084022;28;20016;-86
2022/04/25 08:34:17;;;;;;;2.80;1.30;;;15.90;99.90;;;;;;5091211;28;20040;-86
2022/04/25 08:36:43;;;;;;;2.60;1.50;;;15.80;99.90;;;;;;5094723;28;20061;-85
2022/04/25 08:39:10;;;;;;;1.73;1.10;;;15.70;99.90;;;;;;5063215;28;20038;-87
2022/04/25 08:41:38;;;;;;;3.33;1.45;;;15.90;99.90;;;;;;5091266;28;20016;-85
2022/04/25 08:44:05;;;;;;;3.20;1.35;;;16.00;99.90;;;;;;5091861;28;20028;-86
2022/04/25 08:46:34;;;;;;;3.08;1.83;;;16.30;99.90;;;;;;5093112;28;20027;-86
2022/04/25 08:49:03;;;;;;;3.35;1.75;;;16.40;99.90;;;;;;5091547;28;20040;-85
2022/04/25 08:51:34;;;;;;;2.40;1.50;;;16.70;99.90;;;;;;5092431;28;20016;-87
2022/04/25 08:54:08;;;;;;;6.38;1.95;;;16.80;99.90;;;;;;5095483;28;20020;-86
2022/04/25 08:56:36;;;;;;;;;;;16.70;99.90;;;;;;5078909;28;20024;-86
2022/04/25 08:59:04;;;;;;;4.78;1.80;;;16.70;99.90;;;;;;5079517;28;19931;-87
2022/04/25 09:01:30;;;;;;;1.95;1.40;;;16.60;99.90;;;;;;5089650;28;20058;-87
2022/04/25 09:03:56;;;;;;;5.40;1.90;;;16.60;99.90;;;;;;5085864;28;20032;-87
2022/04/25 09:06:22;;;;;;;2.10;1.52;;;16.60;99.90;;;;;;5072941;28;20033;-88
2022/04/25 09:08:48;;;;;;;3.88;1.73;;;16.10;99.90;;;;;;5069419;28;20047;-87
2022/04/25 09:13:58;;;;;;;4.57;1.60;;;16.40;99.90;;;;;;5090838;28;20044;-87
2022/04/25 09:16:24;;;;;;;6.82;1.73;;;16.50;99.90;;;;;;5092675;28;20072;-86
2022/04/25 09:18:50;;;;;;;8.05;1.80;;;16.40;99.90;;;;;;5085742;28;20070;-86
2022/04/25 09:21:16;;;;;;;4.75;1.65;;;16.40;99.90;;;;;;5071444;28;20021;-86
2022/04/25 09:23:42;;;;;;;1.90;1.55;;;16.50;99.90;;;;;;5085050;28;20059;-85
2022/04/25 09:26:15;;;;;;;5.72;1.70;;;16.60;99.90;;;;;;5094949;28;20028;-85
2022/04/25 09:28:56;;;;;;;3.20;1.67;;;16.70;99.90;;;;;;5086835;28;20466;-87
2022/04/25 09:31:26;;;;;;;2.58;1.50;;;16.80;99.90;;;;;;5071919;28;20021;-86
2022/04/25 09:33:53;;;;;;;3.67;1.88;;;17.20;99.90;;;;;;5087079;28;20024;-86
2022/04/25 09:36:18;;;;;;;8.93;1.67;;;17.70;99.90;;;;;;5072433;28;20045;-87
2022/04/25 09:38:45;;;;;;;2.67;1.90;;;18.10;99.90;;;;;;5099476;28;20032;-86
2022/04/25 09:41:13;;;;;;;4.18;1.50;;;18.50;99.90;;;;;;5115780;28;20027;-87
2022/04/25 09:43:41;;;;;;;7.60;1.42;;;19.40;99.90;;;;;;5089685;28;20029;-87
2022/04/25 09:46:13;;;;;;;3.45;1.38;;;19.60;99.40;;;;;;5091530;28;20020;-86
2022/04/25 09:48:43;;;;;;;2.40;1.30;;;19.80;98.30;;;;;;5087711;28;20044;-85
2022/04/25 09:51:17;;;;;;;5.43;1.25;;;20.10;98.10;;;;;;5093986;28;20100;-84
2022/04/25 09:53:53;;;;;;;2.40;1.35;;;20.80;96.40;;;;;;5090142;28;20032;-85
2022/04/25 09:56:23;;;;;;;3.15;1.17;;;21.30;95.50;;;;;;5080912;28;20041;-84
2022/04/25 09:59:09;;;;;;;2.78;1.77;;;22.10;94.30;;;;;;5116623;28;20091;-85
2022/04/25 10:01:37;;;;;;;10.65;1.65;;;23.30;92.10;;;;;;5072402;28;20076;-85
2022/04/25 10:04:05;;;;;;;1.92;1.30;;;23.70;91.10;;;;;;5095860;28;20020;-85
2022/04/25 10:06:33;;;;;;;2.97;1.52;;;24.10;89.80;;;;;;5094947;28;21079;-85
2022/04/25 10:09:01;;;;;;;1.50;1.40;;;24.00;88.50;;;;;;5099673;28;20030;-86
2022/04/25 10:11:32;;;;;;;1.65;1.48;;;23.60;87.80;;;;;;5099443;28;20048;-84
2022/04/25 10:13:58;;;;;;;1.60;1.27;;;23.50;87.30;;;;;;5094384;28;20035;-85
2022/04/25 10:16:24;;;;;;;3.60;1.65;;;23.20;87.60;;;;;;5088496;28;20051;-87
2022/04/25 10:18:51;;;;;;;4.55;1.70;;;22.80;88.10;;;;;;5121161;28;20047;-88
2022/04/25 10:21:17;;;;;;;2.63;1.77;;;22.30;88.90;;;;;;5087827;28;20017;-88
2022/04/25 10:23:44;;;;;;;8.48;2.17;;;21.70;90.20;;;;;;5073791;28;20052;-88
2022/04/25 10:26:10;;;;;;;2.55;1.70;;;21.30;90.40;;;;;;5073462;28;20096;-88
2022/04/25 10:28:54;;;;;;;1.70;1.60;;;20.50;91.50;;;;;;5055397;28;20097;-87
2022/04/25 10:31:38;;;;;;;2.22;1.60;;;20.60;91.70;;;;;;5071636;28;20075;-85
2022/04/25 10:34:05;;;;;;;2.47;1.60;;;21.90;91.10;;;;;;5082830;28;20032;-86
2022/04/25 10:36:36;;;;;;;1.88;1.63;;;23.30;88.50;;;;;;5077136;28;20072;-87
2022/04/25 10:39:22;;;;;;;2.42;1.75;;;24.10;85.90;;;;;;5079026;28;20076;-85
2022/04/25 10:44:47;;;;;;;4.03;1.63;;;25.90;80.50;;;;;;5088999;28;20017;-86
2022/04/25 10:47:16;;;;;;;;;;;25.70;79.90;;;;;;5096200;28;20035;-86
2022/04/25 10:49:47;;;;;;;3.70;1.95;;;25.40;78.40;;;;;;5096983;28;19919;-85
2022/04/25 10:52:31;;;;;;;4.88;2.35;;;24.10;77.50;;;;;;5079692;28;20036;-86
2022/04/25 10:55:13;;;;;;;6.75;2.60;;;22.70;80.30;;;;;;5066683;28;20087;-86
2022/04/25 10:58:01;;;;;;;7.18;2.83;;;21.40;83.40;;;;;;5100221;28;20020;-86
2022/04/25 11:00:36;;;;;;;5.18;2.72;;;20.60;85.70;;;;;;5109249;28;20078;-87
2022/04/25 11:03:30;;;;;;;3.17;2.15;;;20.00;87.20;;;;;;5080680;28;20078;-87
2022/04/25 11:06:01;;;;;;;3.30;2.40;;;20.00;89.70;;;;;;5091512;28;20028;-85
2022/04/25 11:08:29;;;;;;;6.88;2.53;;;20.80;88.10;;;;;;5098755;28;20052;-84
2022/04/25 11:11:03;;;;;;;6.60;2.70;;;21.00;87.70;;;;;;5088883;28;20028;-84
2022/04/25 11:13:51;;;;;;;3.63;2.45;;;20.90;87.20;;;;;;5091156;28;20012;-86
2022/04/25 11:16:24;;;;;;;3.22;2.42;;;22.40;84.60;;;;;;5102268;28;20040;-86
2022/04/25 11:19:12;;;;;;;3.72;2.30;;;23.80;80.30;;;;;;5087904;28;20035;-85
2022/04/25 11:21:49;;;;;;;4.00;2.60;;;25.10;77.70;;;;;;5084809;28;20063;-84
2022/04/25 11:24:42;;;;;;;5.63;2.58;;;26.20;75.50;;;;;;5079277;28;20035;-86
2022/04/25 11:27:14;;;;;;;3.25;2.05;;;26.30;72.10;;;;;;5075690;28;20028;-86
2022/04/25 11:29:47;;;;;;;5.13;2.65;;;26.40;71.20;;;;;;5076736;28;20066;-85
2022/04/25 11:32:36;;;;;;;8.23;2.63;;;25.20;73.10;;;;;;5061624;28;20037;-85
2022/04/25 11:35:03;;;;;;;5.90;2.70;;;25.50;71.10;;;;;;5070026;28;20034;-84
2022/04/25 11:37:31;;;;;;;10.95;2.75;;;26.20;69.70;;;;;;5097242;28;20056;-85
2022/04/25 11:40:04;;;;;;;7.47;2.65;;;26.80;68.70;;;;;;5085188;28;20092;-88
2022/04/25 11:42:32;;;;;;;8.05;2.95;;;27.80;66.40;;;;;;5092745;28;20005;-89
2022/04/25 11:44:59;;;;;;;8.23;2.90;;;28.80;65.40;;;;;;5076555;28;20021;-88
2022/04/25 11:47:25;;;;;;;7.22;3.05;;;28.90;64.30;;;;;;5078854;28;20017;-88
2022/04/25 11:50:12;;;;;;;11.00;2.55;;;28.60;64.10;;;;;;5083411;28;20531;-87
2022/04/25 11:52:49;;;;;;;7.63;3.00;;;28.60;63.50;;;;;;5096493;28;20028;-83
2022/04/25 11:55:30;;;;;;;3.80;2.88;;;28.10;63.80;;;;;;5096822;28;20024;-86
2022/04/25 11:57:55;;;;;;;6.28;2.90;;;27.60;64.30;;;;;;5073726;28;20045;-87
2022/04/25 12:00:22;;;;;;;9.63;3.92;;;27.80;64.40;;;;;;5068902;28;20096;-85
2022/04/25 12:02:47;;;;;;;6.22;2.70;;;28.00;64.30;;;;;;5074878;28;20024;-87
2022/04/25 12:05:24;;;;;;;3.03;2.17;;;28.40;63.30;;;;;;5086791;28;20032;-85
2022/04/25 12:16:08;;;;;;;4.40;2.38;;;28.00;63.40;;;;;;5038016;28;20095;-86
2022/04/25 12:18:45;;;;;;;6.20;2.58;;;27.60;63.90;;;;;;5093022;28;20047;-86
2022/04/25 12:21:16;;;;;;;3.95;1.95;;;27.40;65.00;;;;;;5072196;28;20451;-84
2022/04/25 12:23:46;;;;;;;5.07;2.00;;;26.60;67.10;;;;;;5081053;28;20032;-86
2022/04/25 12:26:26;;;;;;;2.85;2.15;;;26.60;68.10;;;;;;5098029;22;20040;-83
2022/04/25 12:29:02;;;;;;;9.13;2.30;;;26.60;67.60;;;;;;5026048;28;20060;-86
2022/04/25 12:31:45;;;;;;;2.45;2.13;;;27.50;66.50;;;;;;5063679;28;20040;-85
2022/04/25 12:34:12;;;;;;;3.90;2.80;;;28.30;65.00;;;;;;5058888;28;20034;-86
2022/04/25 12:36:39;;;;;;;4.18;2.65;;;27.10;65.10;;;;;;5040589;28;20638;-86
2022/04/25 12:39:08;;;;;;;3.33;3.00;;;25.60;67.20;;;;;;5048290;28;20034;-83
2022/04/25 12:41:36;;;;;;;3.35;2.78;;;24.40;69.20;;;;;;5027784;28;20096;-87
2022/04/25 12:44:11;;;;;;;5.78;3.13;;;23.00;71.80;;;;;;5042346;28;20034;-86
2022/04/25 12:46:43;;;;;;;5.22;3.28;;;21.90;73.90;;;;;;5044533;28;20037;-85
2022/04/25 12:49:16;;;;;;;3.28;2.95;;;21.10;75.60;;;;;;5044840;28;20030;-85
2022/04/25 12:51:56;;;;;;;5.95;3.40;;;20.20;78.40;;;;;;5044562;28;20041;-84
2022/04/25 12:54:31;;;;;;;3.13;2.75;;;19.90;78.70;;;;;;5032731;28;20057;-84
2022/04/25 12:57:13;;;;;;;4.18;3.20;;;19.50;79.90;;;;;;5048055;28;20041;-82
2022/04/25 12:59:40;;;;;;;4.45;3.15;;;18.90;82.60;;;;;;5029571;28;20033;-85
2022/04/25 13:02:16;;;;;;;3.88;2.85;;;18.70;83.40;;;;;;5048026;28;20021;-82
2022/04/25 13:05:04;;;;;;;3.78;2.90;;;18.30;84.50;;;;;;5055054;28;20029;-83
2022/04/25 13:07:39;;;;;;;7.03;2.92;;;18.10;83.80;;;;;;5053671;28;20044;-83
2022/04/25 13:10:06;;;;;;;3.95;3.00;;;17.80;84.40;;;;;;5038784;28;20097;-81
2022/04/25 13:12:43;;;;;;;9.10;2.72;;;17.70;84.00;;;;;;5054794;28;20057;-82
2022/04/25 13:15:14;;;;;;;3.92;2.85;;;17.90;83.60;;;;;;5055505;28;20026;-82
2022/04/25 13:17:41;;;;;;;4.43;3.13;;;17.70;83.00;;;;;;5056305;28;20052;-84
2022/04/25 13:20:12;;;;;;;5.43;3.17;;;17.90;82.60;;;;;;5057184;28;20037;-83
2022/04/25 13:22:38;;;;;;;5.72;3.95;;;17.90;81.80;;;;;;5036625;28;20021;-83
2022/04/25 13:25:06;;;;;;;6.35;3.42;;;18.10;82.00;;;;;;5037983;28;20044;-86
2022/04/25 13:27:34;;;;;;;4.63;3.38;;;18.50;81.20;;;;;;5043817;28;20041;-87
2022/04/25 13:30:00;;;;;;;8.57;3.53;;;19.70;80.20;;;;;;5044226;28;20108;-88
2022/04/25 13:32:26;;;;;;;5.80;3.33;;;21.20;76.30;;;;;;5033349;28;20034;-84
2022/04/25 13:34:52;;;;;;;7.65;3.75;;;23.30;71.20;;;;;;5039745;28;20036;-85